Time;durP1;ratioP1;P1;durP2;ratioP2;P2;SDS_P1;SDS_P2;PMS_P1;PMS_P2;Temp;Humidity;BMP_temperature;BMP_pressure;BME280_temperature;BME280_humidity;BME280_pressure;Samples;Min_cycle;Max_cycle;Signal;HPM_P1;HPM_P2
2022/03/30 00:00:53;;;;;;;27.27;9.43;;;;;;;11.27;100.00;96821.09;5002752;28;20097;-57
2022/03/30 00:03:18;;;;;;;29.10;9.80;;;;;;;11.22;100.00;96818.75;5006713;28;20026;-57
2022/03/30 00:05:44;;;;;;;31.48;9.65;;;;;;;11.45;100.00;96821.69;4998104;28;20072;-57
2022/03/30 00:08:09;;;;;;;33.67;11.00;;;;;;;11.25;100.00;96813.34;5001882;28;20403;-56
2022/03/30 00:10:35;;;;;;;36.00;11.15;;;;;;;11.21;100.00;96811.84;5002671;28;20540;-56
2022/03/30 00:13:01;;;;;;;33.92;10.95;;;;;;;11.29;100.00;96803.56;4999476;28;20034;-57
2022/03/30 00:15:28;;;;;;;34.67;11.88;;;;;;;11.15;100.00;96800.00;5002027;28;20610;-56
2022/03/30 00:17:54;;;;;;;29.08;11.13;;;;;;;11.26;100.00;96799.34;5006493;28;20640;-56
2022/03/30 00:20:20;;;;;;;36.17;11.85;;;;;;;11.12;100.00;96801.97;5006568;28;20503;-57
2022/03/30 00:22:45;;;;;;;33.75;11.00;;;;;;;11.26;100.00;96793.31;5006130;28;20469;-56
2022/03/30 00:25:12;;;;;;;36.50;12.27;;;;;;;11.14;100.00;96789.69;5008691;28;20310;-57
2022/03/30 00:27:43;;;;;;;28.50;11.57;;;;;;;10.96;100.00;96792.50;5007628;28;20029;-56
2022/03/30 00:30:10;;;;;;;29.88;10.77;;;;;;;11.03;100.00;96790.38;5007019;28;20531;-57
2022/03/30 00:32:35;;;;;;;26.60;9.93;;;;;;;11.09;100.00;96781.31;5006894;28;20131;-55
2022/03/30 00:35:00;;;;;;;37.05;11.73;;;;;;;11.21;100.00;96775.31;5004297;28;20549;-57
2022/03/30 00:37:26;;;;;;;38.42;11.65;;;;;;;11.24;100.00;96775.13;5005263;28;20067;-56
2022/03/30 00:39:53;;;;;;;37.17;11.73;;;;;;;11.11;100.00;96779.44;5004912;28;20033;-57
2022/03/30 00:42:21;;;;;;;32.85;12.23;;;;;;;10.91;100.00;96776.28;5005899;28;20056;-57
2022/03/30 00:44:47;;;;;;;41.80;13.73;;;;;;;11.03;100.00;96768.63;5005964;28;20120;-57
2022/03/30 00:47:25;;;;;;;30.30;11.65;;;;;;;11.09;100.00;96773.47;5005877;28;20072;-56
2022/03/30 00:49:51;;;;;;;36.13;12.02;;;;;;;11.46;100.00;96766.75;5005896;28;20036;-56
2022/03/30 00:52:18;;;;;;;40.63;13.45;;;;;;;10.56;100.00;96763.66;5005397;28;20432;-57
2022/03/30 00:54:46;;;;;;;41.78;13.40;;;;;;;10.88;100.00;96758.25;5007639;28;20032;-56
2022/03/30 00:57:13;;;;;;;36.80;12.07;;;;;;;10.88;100.00;96758.25;5005670;28;20045;-58
2022/03/30 00:59:40;;;;;;;36.55;12.18;;;;;;;11.20;100.00;96752.75;5011898;28;20033;-56
2022/03/30 01:02:06;;;;;;;35.10;12.20;;;;;;;11.30;100.00;96748.66;5007630;28;20072;-58
2022/03/30 01:04:32;;;;;;;33.45;11.43;;;;;;;11.15;100.00;96744.38;5005538;28;20062;-58
2022/03/30 01:06:57;;;;;;;39.80;13.43;;;;;;;11.09;100.00;96739.56;5005305;28;20122;-56
2022/03/30 01:09:23;;;;;;;34.40;13.20;;;;;;;10.83;100.00;96741.19;5004200;28;20037;-58
2022/03/30 01:11:51;;;;;;;39.13;12.55;;;;;;;10.99;100.00;96740.16;5006375;28;20044;-56
2022/03/30 01:14:17;;;;;;;40.92;13.65;;;;;;;10.99;100.00;96729.72;5006870;28;20026;-58
2022/03/30 01:16:42;;;;;;;35.80;11.43;;;;;;;11.07;100.00;96731.00;5001158;28;20041;-56
2022/03/30 01:19:09;;;;;;;30.13;10.75;;;;;;;10.91;100.00;96724.13;5004536;28;20055;-57
2022/03/30 01:21:37;;;;;;;36.42;12.15;;;;;;;11.15;100.00;96723.50;5005509;28;20061;-56
2022/03/30 01:24:03;;;;;;;34.08;12.85;;;;;;;10.81;100.00;96725.66;5007549;28;20021;-57
2022/03/30 01:26:28;;;;;;;39.05;12.30;;;;;;;11.04;100.00;96711.13;5003608;28;20042;-56
2022/03/30 01:28:55;;;;;;;30.48;10.70;;;;;;;10.88;100.00;96707.81;5005591;28;20037;-57
2022/03/30 01:34:05;;;;;;;34.70;11.30;;;;;;;10.92;100.00;96701.50;5010534;28;20041;-56
2022/03/30 01:36:30;;;;;;;30.52;9.82;;;;;;;10.79;100.00;96704.03;5006125;28;20033;-56
2022/03/30 01:38:56;;;;;;;30.55;8.93;;;;;;;10.86;100.00;96694.88;5007623;28;20025;-57
2022/03/30 01:41:21;;;;;;;36.40;12.38;;;;;;;10.82;100.00;96690.78;5003878;28;20848;-57
2022/03/30 01:43:46;;;;;;;30.52;10.10;;;;;;;11.05;100.00;96685.91;5003394;28;20036;-56
2022/03/30 01:46:12;;;;;;;27.35;9.07;;;;;;;11.00;100.00;96688.78;5006294;28;20095;-57
2022/03/30 01:48:37;;;;;;;38.90;11.35;;;;;;;10.91;100.00;96685.00;5007980;28;20025;-56
2022/03/30 01:51:03;;;;;;;35.38;12.27;;;;;;;10.81;100.00;96683.91;5007331;28;20042;-56
2022/03/30 01:53:28;;;;;;;31.83;11.55;;;;;;;10.83;100.00;96671.63;5005105;28;20033;-56
2022/03/30 01:55:53;;;;;;;36.92;12.95;;;;;;;10.84;100.00;96672.44;5003851;28;20428;-56
2022/03/30 01:58:19;;;;;;;34.65;12.02;;;;;;;10.81;100.00;96665.66;5005691;28;20108;-57
2022/03/30 02:00:45;;;;;;;40.78;11.75;;;;;;;10.86;100.00;96665.34;5004169;28;20038;-56
2022/03/30 02:03:12;;;;;;;30.73;10.95;;;;;;;11.12;100.00;96653.25;5003717;28;20025;-56
2022/03/30 02:05:37;;;;;;;40.90;13.65;;;;;;;10.78;100.00;96658.00;5000358;28;20069;-55
2022/03/30 02:08:03;;;;;;;31.88;11.20;;;;;;;10.96;100.00;96656.03;5002352;28;20034;-55
2022/03/30 02:10:29;;;;;;;35.92;10.68;;;;;;;10.91;100.00;96653.69;5002846;28;20180;-57
2022/03/30 02:12:55;;;;;;;33.30;10.55;;;;;;;10.88;100.00;96651.28;5005617;28;20029;-57
2022/03/30 02:15:22;;;;;;;30.92;9.88;;;;;;;11.03;100.00;96652.09;5005839;28;20170;-56
2022/03/30 02:17:48;;;;;;;41.83;13.95;;;;;;;10.61;100.00;96646.88;5007104;28;20010;-56
2022/03/30 02:20:13;;;;;;;39.20;12.35;;;;;;;10.88;100.00;96643.47;5004767;28;20034;-61
2022/03/30 02:22:40;;;;;;;32.75;10.73;;;;;;;10.75;100.00;96647.78;5005724;28;20033;-57
2022/03/30 02:25:06;;;;;;;34.97;11.00;;;;;;;10.80;100.00;96641.31;5004417;28;20092;-55
2022/03/30 02:27:31;;;;;;;34.00;11.98;;;;;;;10.63;100.00;96638.97;5006200;28;20123;-55
2022/03/30 02:29:56;;;;;;;32.78;11.75;;;;;;;10.95;100.00;96634.31;5005560;28;20627;-57
2022/03/30 02:32:23;;;;;;;35.58;12.40;;;;;;;10.79;100.00;96639.66;5003653;28;20041;-56
2022/03/30 02:34:48;;;;;;;39.80;11.93;;;;;;;10.54;100.00;96642.97;5006148;28;20079;-57
2022/03/30 02:37:14;;;;;;;33.67;10.75;;;;;;;10.75;100.00;96637.34;5001559;28;20058;-56
2022/03/30 02:39:40;;;;;;;39.03;12.43;;;;;;;10.88;100.00;96621.75;5001410;28;20029;-55
2022/03/30 02:42:07;;;;;;;33.40;10.50;;;;;;;10.90;100.00;96635.53;5004118;28;20068;-56
2022/03/30 02:44:33;;;;;;;38.80;11.45;;;;;;;10.85;100.00;96635.00;5001759;28;20026;-56
2022/03/30 02:47:00;;;;;;;30.38;11.52;;;;;;;10.68;100.00;96630.84;5004490;28;20034;-57
2022/03/30 02:49:27;;;;;;;32.15;10.90;;;;;;;10.69;100.00;96627.31;5010997;28;20021;-56
2022/03/30 02:51:52;;;;;;;38.60;12.07;;;;;;;10.54;100.00;96624.72;5004084;28;20030;-57
2022/03/30 02:54:18;;;;;;;40.65;12.45;;;;;;;10.50;100.00;96623.25;5003884;28;20055;-57
2022/03/30 02:56:43;;;;;;;35.15;11.70;;;;;;;10.51;100.00;96614.50;5002052;28;20116;-57
2022/03/30 02:59:09;;;;;;;43.85;13.90;;;;;;;10.36;100.00;96618.06;5003599;28;20388;-56
2022/03/30 03:01:34;;;;;;;41.97;12.45;;;;;;;10.59;100.00;96617.47;5006126;28;20160;-56
2022/03/30 03:03:59;;;;;;;36.28;12.20;;;;;;;10.64;100.00;96614.53;5003592;28;20033;-55
2022/03/30 03:06:25;;;;;;;46.85;13.32;;;;;;;10.18;100.00;96613.03;5007831;28;20124;-57
2022/03/30 03:08:51;;;;;;;33.67;10.65;;;;;;;10.46;100.00;96607.88;5007074;28;20032;-56
2022/03/30 03:11:16;;;;;;;41.72;13.05;;;;;;;10.55;100.00;96607.31;5007136;28;20037;-56
2022/03/30 03:13:42;;;;;;;37.33;11.63;;;;;;;10.42;100.00;96609.84;5003562;28;20763;-55
2022/03/30 03:16:07;;;;;;;31.83;11.60;;;;;;;10.62;100.00;96616.41;5002200;28;20444;-57
2022/03/30 03:18:32;;;;;;;46.63;12.75;;;;;;;10.66;100.00;96606.63;5002872;28;20067;-56
2022/03/30 03:20:58;;;;;;;40.00;12.57;;;;;;;10.60;100.00;96607.84;5005644;28;20492;-56
2022/03/30 03:23:23;;;;;;;42.03;12.82;;;;;;;10.63;100.00;96609.47;5005716;28;20070;-55
2022/03/30 03:25:48;;;;;;;31.15;11.93;;;;;;;10.72;100.00;96601.88;5004153;28;20046;-57
2022/03/30 03:28:14;;;;;;;41.50;12.05;;;;;;;10.66;100.00;96593.59;5003695;28;20400;-57
2022/03/30 03:30:41;;;;;;;31.13;10.18;;;;;;;10.85;100.00;96593.28;4998669;28;20069;-55
2022/03/30 03:33:08;;;;;;;38.53;12.60;;;;;;;10.69;100.00;96590.81;5001397;28;20029;-55
2022/03/30 03:35:33;;;;;;;37.35;12.10;;;;;;;10.75;100.00;96600.81;4999304;28;20092;-56
2022/03/30 03:38:00;;;;;;;38.20;12.63;;;;;;;10.87;100.00;96599.22;5007310;28;20494;-56
2022/03/30 03:40:27;;;;;;;30.42;10.95;;;;;;;10.90;100.00;96597.25;5002815;28;20846;-56
2022/03/30 03:42:52;;;;;;;32.15;10.75;;;;;;;10.80;100.00;96598.78;5004856;28;20021;-55
2022/03/30 03:45:18;;;;;;;34.60;12.85;;;;;;;10.82;100.00;96589.06;5005343;28;20308;-56
2022/03/30 03:47:44;;;;;;;38.17;12.27;;;;;;;10.72;100.00;96591.44;5007998;28;20030;-57
2022/03/30 03:50:10;;;;;;;23.35;7.53;;;;;;;11.17;100.00;96596.38;5007844;28;20029;-56
2022/03/30 03:52:36;;;;;;;33.92;11.23;;;;;;;10.88;100.00;96586.09;5007036;28;20036;-56
2022/03/30 03:55:03;;;;;;;32.80;10.88;;;;;;;10.96;100.00;96583.81;5006692;28;20092;-55
2022/03/30 03:57:29;;;;;;;34.08;11.60;;;;;;;10.75;100.00;96582.56;5009022;28;20045;-56
2022/03/30 03:59:55;;;;;;;40.05;13.23;;;;;;;10.43;100.00;96585.47;5004494;28;20026;-55
2022/03/30 04:02:20;;;;;;;28.90;10.30;;;;;;;10.89;100.00;96574.69;5005313;28;20038;-56
2022/03/30 04:04:46;;;;;;;44.33;13.90;;;;;;;10.38;100.00;96582.31;5003913;28;20112;-60
2022/03/30 04:07:11;;;;;;;31.13;10.80;;;;;;;10.87;100.00;96578.34;5004778;28;20546;-56
2022/03/30 04:09:36;;;;;;;31.60;11.60;;;;;;;10.45;100.00;96588.81;5006277;28;20040;-56
2022/03/30 04:12:03;;;;;;;44.47;13.20;;;;;;;10.10;100.00;96580.56;5005791;28;20471;-57
2022/03/30 04:14:28;;;;;;;33.85;11.13;;;;;;;10.71;100.00;96578.50;5000281;28;20030;-56
2022/03/30 04:16:54;;;;;;;41.50;13.57;;;;;;;10.36;100.00;96581.56;5004046;28;20112;-56
2022/03/30 04:19:19;;;;;;;41.20;14.10;;;;;;;10.44;100.00;96571.53;5003605;28;20029;-56
2022/03/30 04:21:45;;;;;;;43.58;13.00;;;;;;;10.54;100.00;96577.81;5006213;28;20061;-56
2022/03/30 04:24:11;;;;;;;36.50;11.48;;;;;;;10.59;100.00;96570.53;5003014;28;20030;-57
2022/03/30 04:26:37;;;;;;;43.33;13.93;;;;;;;10.60;100.00;96567.00;5001579;28;20082;-55
2022/03/30 04:29:03;;;;;;;43.13;14.38;;;;;;;10.28;100.00;96562.97;5007248;28;20030;-56
2022/03/30 04:31:28;;;;;;;35.92;12.43;;;;;;;10.66;100.00;96562.31;5004886;28;20048;-55
2022/03/30 04:33:54;;;;;;;33.85;12.43;;;;;;;10.56;100.00;96565.50;5006267;28;20538;-56
2022/03/30 04:36:19;;;;;;;35.88;13.13;;;;;;;10.53;100.00;96559.66;5006861;28;20279;-55
2022/03/30 04:38:45;;;;;;;34.75;10.63;;;;;;;10.34;100.00;96562.59;5005598;28;20506;-56
2022/03/30 04:41:10;;;;;;;25.48;8.60;;;;;;;10.68;100.00;96558.69;5007787;28;20037;-55
2022/03/30 04:43:35;;;;;;;32.38;11.75;;;;;;;10.61;100.00;96547.81;5010152;28;20033;-57
2022/03/30 04:46:01;;;;;;;39.33;12.80;;;;;;;10.55;100.00;96543.00;5006173;28;20561;-57
2022/03/30 04:48:26;;;;;;;37.53;13.80;;;;;;;10.47;100.00;96539.19;5007360;28;20036;-57
2022/03/30 04:50:52;;;;;;;37.45;12.13;;;;;;;10.22;100.00;96551.97;5004027;28;20038;-57
2022/03/30 04:53:17;;;;;;;35.42;11.00;;;;;;;10.46;100.00;96547.94;5007119;28;20065;-56
2022/03/30 04:55:43;;;;;;;39.70;13.23;;;;;;;10.42;100.00;96542.09;5003890;28;20445;-57
2022/03/30 04:58:08;;;;;;;43.33;14.27;;;;;;;10.12;100.00;96550.88;5007778;28;20029;-58
2022/03/30 05:00:33;;;;;;;29.58;9.10;;;;;;;10.58;100.00;96547.16;5002328;28;20037;-58
2022/03/30 05:02:59;;;;;;;42.25;13.88;;;;;;;10.40;100.00;96542.19;5005345;28;20030;-57
2022/03/30 05:05:24;;;;;;;35.60;10.63;;;;;;;10.42;100.00;96542.09;5002905;28;20033;-56
2022/03/30 05:07:50;;;;;;;39.60;11.98;;;;;;;10.55;100.00;96542.13;5005234;28;20026;-56
2022/03/30 05:10:16;;;;;;;28.90;9.68;;;;;;;10.35;100.00;96543.44;5005548;28;20113;-57
2022/03/30 05:12:42;;;;;;;31.60;9.05;;;;;;;10.61;100.00;96537.38;5003715;28;20053;-57
2022/03/30 05:15:11;;;;;;;45.80;14.77;;;;;;;10.45;100.00;96541.91;5002248;28;20190;-56
2022/03/30 05:17:38;;;;;;;33.50;12.07;;;;;;;10.30;100.00;96545.44;5004309;28;20014;-58
2022/03/30 05:20:04;;;;;;;43.08;14.43;;;;;;;10.35;100.00;96540.81;5007435;28;20017;-58
2022/03/30 05:22:29;;;;;;;42.20;14.23;;;;;;;10.21;100.00;96542.47;5007535;28;20062;-58
2022/03/30 05:24:55;;;;;;;39.95;11.48;;;;;;;10.51;100.00;96538.91;5007166;28;20076;-58
2022/03/30 05:27:20;;;;;;;33.25;11.15;;;;;;;10.75;100.00;96528.66;5006148;28;20038;-58
2022/03/30 05:29:45;;;;;;;33.38;10.77;;;;;;;10.67;100.00;96530.09;5004670;28;20025;-57
2022/03/30 05:32:11;;;;;;;37.22;12.35;;;;;;;10.44;100.00;96535.03;5000174;28;20041;-57
2022/03/30 05:34:36;;;;;;;45.95;14.73;;;;;;;10.02;100.00;96534.97;5001100;28;20033;-57
2022/03/30 05:37:02;;;;;;;47.92;14.40;;;;;;;10.21;100.00;96534.66;4998223;28;20033;-57
2022/03/30 05:39:27;;;;;;;47.70;15.50;;;;;;;10.02;100.00;96540.19;5003624;28;20479;-56
2022/03/30 05:41:52;;;;;;;43.67;13.88;;;;;;;10.44;100.00;96523.75;5002517;28;20141;-54
2022/03/30 05:44:18;;;;;;;39.20;12.95;;;;;;;10.81;100.00;96527.44;5003746;28;20067;-53
2022/03/30 05:46:44;;;;;;;42.13;13.13;;;;;;;10.69;100.00;96517.78;4999771;28;20120;-53
2022/03/30 05:49:09;;;;;;;41.40;14.27;;;;;;;10.41;100.00;96519.56;5002842;28;20223;-54
2022/03/30 05:51:34;;;;;;;37.45;13.27;;;;;;;10.56;100.00;96515.97;5005341;28;20044;-53
2022/03/30 05:53:59;;;;;;;44.53;14.18;;;;;;;10.25;100.00;96513.63;5003807;28;20026;-53
2022/03/30 05:59:10;;;;;;;44.47;14.85;;;;;;;10.33;100.00;96514.84;5006607;28;20040;-54
2022/03/30 06:01:35;;;;;;;42.97;15.73;;;;;;;10.49;100.00;96522.50;5005756;28;20062;-53
2022/03/30 06:04:02;;;;;;;41.92;15.65;;;;;;;10.29;100.00;96515.09;5004675;28;20057;-53
2022/03/30 06:06:27;;;;;;;45.83;14.75;;;;;;;10.18;100.00;96518.38;5002356;28;20043;-52
2022/03/30 06:08:52;;;;;;;42.03;15.52;;;;;;;10.65;100.00;96513.72;5003803;28;20029;-55
2022/03/30 06:11:18;;;;;;;43.22;15.15;;;;;;;10.91;100.00;96514.59;5005051;28;20038;-52
2022/03/30 06:13:44;;;;;;;39.28;13.80;;;;;;;10.94;100.00;96507.41;5006922;28;20034;-53
2022/03/30 06:16:09;;;;;;;45.10;14.85;;;;;;;11.00;100.00;96507.00;5001422;28;20030;-53
2022/03/30 06:18:35;;;;;;;38.13;13.55;;;;;;;11.08;100.00;96503.03;5000647;28;20030;-54
2022/03/30 06:21:00;;;;;;;40.65;13.82;;;;;;;11.23;100.00;96502.03;5006574;28;20038;-53
2022/03/30 06:23:26;;;;;;;41.35;13.73;;;;;;;11.34;100.00;96506.50;5003838;28;20033;-53
2022/03/30 06:25:51;;;;;;;35.08;13.45;;;;;;;11.22;100.00;96500.34;5003842;28;20083;-53
2022/03/30 06:28:18;;;;;;;35.97;12.48;;;;;;;11.47;100.00;96501.28;5004873;28;20050;-54
2022/03/30 06:30:43;;;;;;;41.63;14.65;;;;;;;11.45;100.00;96496.19;5005552;28;20543;-53
2022/03/30 06:33:08;;;;;;;40.28;14.25;;;;;;;11.43;100.00;96499.84;5001784;28;20056;-53
2022/03/30 06:35:34;;;;;;;43.85;14.43;;;;;;;11.66;100.00;96487.81;5004551;28;20048;-54
2022/03/30 06:37:59;;;;;;;33.83;13.20;;;;;;;11.68;100.00;96502.41;5009076;28;20673;-53
2022/03/30 06:40:25;;;;;;;41.72;14.30;;;;;;;11.76;100.00;96489.69;5006493;28;20038;-54
2022/03/30 06:42:53;;;;;;;39.33;14.63;;;;;;;11.53;100.00;96498.28;5007470;28;20069;-54
2022/03/30 06:45:18;;;;;;;39.88;14.32;;;;;;;11.08;100.00;96497.84;5005178;28;20060;-54
2022/03/30 06:47:44;;;;;;;39.30;15.48;;;;;;;11.14;100.00;96497.44;5007621;28;20035;-56
2022/03/30 06:50:11;;;;;;;44.15;15.52;;;;;;;11.24;100.00;96495.84;5006533;28;20025;-55
2022/03/30 06:52:36;;;;;;;40.13;14.80;;;;;;;11.49;100.00;96491.59;5003220;28;20022;-55
2022/03/30 06:55:04;;;;;;;36.45;14.35;;;;;;;11.93;100.00;96490.31;5002142;28;20034;-55
2022/03/30 06:57:30;;;;;;;39.25;14.10;;;;;;;12.04;100.00;96487.78;5003002;28;20038;-55
2022/03/30 06:59:56;;;;;;;31.73;11.45;;;;;;;12.38;100.00;96487.94;5003502;28;20045;-54
2022/03/30 07:02:21;;;;;;;35.88;14.40;;;;;;;11.71;100.00;96476.09;5004092;28;20034;-54
2022/03/30 07:04:47;;;;;;;48.35;14.68;;;;;;;11.99;100.00;96483.81;5004367;28;20026;-56
2022/03/30 07:12:40;;;;;;;38.38;13.63;;;;;;;12.04;100.00;96487.78;5005223;28;20341;-55
2022/03/30 07:15:05;;;;;;;39.95;14.05;;;;;;;12.19;100.00;96485.00;5002843;28;20863;-55
2022/03/30 07:17:33;;;;;;;37.70;14.35;;;;;;;11.67;100.00;96485.09;5006287;28;20020;-54
2022/03/30 07:19:58;;;;;;;30.63;9.98;;;;;;;12.57;100.00;96478.75;5008741;28;20034;-56
2022/03/30 07:22:23;;;;;;;40.10;14.05;;;;;;;12.14;100.00;96486.16;5009317;28;20060;-55
2022/03/30 07:24:49;;;;;;;42.38;14.02;;;;;;;12.40;100.00;96483.44;5008765;28;20029;-55
2022/03/30 07:27:14;;;;;;;38.97;14.88;;;;;;;11.93;100.00;96487.69;5009281;28;20041;-54
2022/03/30 07:29:39;;;;;;;33.42;13.43;;;;;;;12.46;100.00;96485.63;5012288;28;20026;-55
2022/03/30 07:32:05;;;;;;;34.42;13.73;;;;;;;11.91;100.00;96489.56;5003138;28;20048;-55
2022/03/30 07:34:31;;;;;;;29.38;12.45;;;;;;;12.17;100.00;96486.88;5008176;28;20033;-54
2022/03/30 07:36:57;;;;;;;42.38;15.10;;;;;;;12.32;100.00;96488.41;5007993;28;20033;-54
2022/03/30 07:39:23;;;;;;;39.42;15.27;;;;;;;12.19;100.00;96495.47;5006848;28;20022;-55
2022/03/30 07:41:48;;;;;;;43.13;14.55;;;;;;;11.75;100.00;96498.44;5007101;28;20104;-54
2022/03/30 07:44:13;;;;;;;39.38;14.90;;;;;;;12.12;100.00;96493.25;5011790;28;20984;-54
2022/03/30 07:46:39;;;;;;;35.47;13.50;;;;;;;12.14;100.00;96494.00;5005206;28;20586;-55
2022/03/30 07:49:04;;;;;;;40.55;14.68;;;;;;;12.04;100.00;96503.44;5007030;28;20625;-55
2022/03/30 07:51:30;;;;;;;39.13;13.30;;;;;;;12.00;100.00;96506.38;5006274;28;20092;-55
2022/03/30 07:53:55;;;;;;;36.47;13.48;;;;;;;12.43;100.00;96498.91;5005182;28;20021;-55
2022/03/30 07:56:21;;;;;;;38.08;14.20;;;;;;;12.18;100.00;96496.41;5004202;28;20084;-54
2022/03/30 07:58:48;;;;;;;42.25;15.43;;;;;;;11.99;100.00;96504.72;5010552;28;20033;-54
2022/03/30 08:01:16;;;;;;;40.95;15.50;;;;;;;11.74;100.00;96502.00;5007761;28;20450;-54
2022/03/30 08:03:43;;;;;;;34.30;13.45;;;;;;;12.04;100.00;96503.44;5009698;28;20049;-56
2022/03/30 08:06:09;;;;;;;41.53;15.10;;;;;;;11.84;100.00;96511.81;5004339;28;20057;-56
2022/03/30 08:08:34;;;;;;;39.25;14.60;;;;;;;11.85;100.00;96519.53;5010028;28;20034;-56
2022/03/30 08:10:59;;;;;;;43.72;16.85;;;;;;;11.52;100.00;96517.47;5006226;28;20595;-56
2022/03/30 08:13:24;;;;;;;36.60;13.10;;;;;;;11.93;100.00;96506.81;5005848;28;20438;-55
2022/03/30 08:15:50;;;;;;;38.03;14.70;;;;;;;12.11;100.00;96515.13;5002850;28;20043;-55
2022/03/30 08:18:15;;;;;;;37.10;14.32;;;;;;;11.82;100.00;96516.28;5007741;28;20033;-55
2022/03/30 08:23:24;;;;;;;38.50;15.00;;;;;;;11.84;100.00;96514.44;5011097;28;20613;-54
2022/03/30 08:25:50;;;;;;;44.33;16.30;;;;;;;11.92;100.00;96519.97;5005224;28;20045;-55
2022/03/30 08:28:15;;;;;;;44.47;16.83;;;;;;;11.92;100.00;96506.91;5010965;28;20029;-55
2022/03/30 08:30:41;;;;;;;44.80;16.75;;;;;;;11.99;100.00;96510.78;5003756;28;20042;-55
2022/03/30 08:33:06;;;;;;;45.45;17.08;;;;;;;11.79;100.00;96514.75;5003080;28;20026;-55
2022/03/30 08:35:33;;;;;;;45.08;17.42;;;;;;;12.18;100.00;96522.53;5005611;28;20521;-54
2022/03/30 08:37:58;;;;;;;40.42;16.02;;;;;;;11.97;100.00;96507.44;5007808;28;20166;-54
2022/03/30 08:40:24;;;;;;;42.22;16.30;;;;;;;11.82;100.00;96508.44;5003415;28;20022;-55
2022/03/30 08:42:50;;;;;;;41.53;16.38;;;;;;;12.28;100.00;96511.31;5006906;28;20564;-55
2022/03/30 08:45:16;;;;;;;41.90;16.52;;;;;;;12.15;100.00;96516.59;5005886;28;20041;-56
2022/03/30 08:47:42;;;;;;;46.10;16.73;;;;;;;11.83;100.00;96515.38;5005269;28;20026;-54
2022/03/30 08:50:08;;;;;;;44.17;16.98;;;;;;;11.87;100.00;96509.84;5002011;28;20097;-54
2022/03/30 08:52:33;;;;;;;45.67;16.40;;;;;;;12.28;100.00;96513.09;5004593;28;20893;-55
2022/03/30 08:54:59;;;;;;;45.33;16.15;;;;;;;12.44;100.00;96505.81;5004918;28;20026;-55
2022/03/30 08:57:25;;;;;;;34.97;13.75;;;;;;;12.42;100.00;96499.03;5005597;28;20026;-55
2022/03/30 09:00:09;;;;;;;42.92;15.32;;;;;;;12.56;100.00;96495.41;5004163;28;20638;-54
2022/03/30 09:02:55;;;;;;;46.92;17.85;;;;;;;12.66;100.00;96494.63;5001135;28;20046;-55
2022/03/30 09:05:23;;;;;;;43.50;15.93;;;;;;;12.17;100.00;96498.19;5003163;28;20057;-55
2022/03/30 09:07:51;;;;;;;43.58;16.50;;;;;;;12.36;100.00;96497.69;5009593;28;20036;-54
2022/03/30 09:10:22;;;;;;;40.17;16.83;;;;;;;12.45;100.00;96491.78;5005723;28;20511;-54
2022/03/30 09:12:50;;;;;;;39.80;16.95;;;;;;;12.46;100.00;96498.69;5004817;28;20033;-56
2022/03/30 09:15:18;;;;;;;47.00;17.83;;;;;;;12.39;100.00;96494.00;5005835;28;20685;-55
2022/03/30 09:17:44;;;;;;;42.20;17.38;;;;;;;11.99;100.00;96502.09;5007296;28;20026;-55
2022/03/30 09:20:16;;;;;;;45.83;18.05;;;;;;;12.06;100.00;96501.56;5005645;28;20034;-55
2022/03/30 09:22:50;;;;;;;40.47;17.60;;;;;;;12.08;100.00;96498.84;5005609;28;20029;-55
2022/03/30 09:25:16;;;;;;;43.42;17.52;;;;;;;12.20;100.00;96491.88;5004409;28;20796;-54
2022/03/30 09:27:43;;;;;;;42.00;17.67;;;;;;;12.19;100.00;96493.69;5002878;28;20133;-55
2022/03/30 09:30:17;;;;;;;46.08;17.00;;;;;;;12.29;100.00;96491.22;5001533;28;20079;-58
2022/03/30 09:32:44;;;;;;;39.13;17.88;;;;;;;11.79;100.00;96493.00;5003083;28;20109;-55
2022/03/30 09:35:25;;;;;;;45.15;18.85;;;;;;;11.60;100.00;96494.31;5004307;28;20060;-54
2022/03/30 09:38:03;;;;;;;38.92;16.90;;;;;;;12.05;100.00;96492.03;5002933;28;20141;-56
2022/03/30 09:40:35;;;;;;;44.03;17.88;;;;;;;11.93;100.00;96485.09;5007687;28;20696;-55
2022/03/30 09:43:17;;;;;;;34.08;15.38;;;;;;;12.13;100.00;96497.56;5007015;28;20026;-54
2022/03/30 09:45:44;;;;;;;44.53;17.95;;;;;;;11.66;100.00;96493.88;5007829;28;20037;-55
2022/03/30 09:48:12;;;;;;;47.25;18.48;;;;;;;11.67;100.00;96492.06;5006191;28;20781;-55
2022/03/30 09:50:46;;;;;;;43.60;16.95;;;;;;;11.50;100.00;96498.47;5002508;28;20049;-56
2022/03/30 09:53:17;;;;;;;43.80;18.02;;;;;;;11.90;100.00;96486.13;5006699;28;20659;-55
2022/03/30 09:55:58;;;;;;;40.63;17.45;;;;;;;11.84;100.00;96496.97;5008170;28;20091;-54
2022/03/30 09:58:26;;;;;;;49.83;17.52;;;;;;;11.88;100.00;96484.53;5006121;28;20037;-54
2022/03/30 10:01:03;;;;;;;45.45;18.35;;;;;;;11.54;100.00;96473.81;5001972;28;20047;-55
2022/03/30 10:03:59;;;;;;;46.25;17.05;;;;;;;11.80;100.00;96472.03;5007107;28;20036;-54
2022/03/30 10:06:30;;;;;;;48.80;18.00;;;;;;;11.74;100.00;96464.59;5005389;28;20065;-55
2022/03/30 10:08:57;;;;;;;46.20;18.00;;;;;;;11.86;100.00;96468.13;5005057;28;20125;-54
2022/03/30 10:11:23;;;;;;;44.28;17.05;;;;;;;11.99;100.00;96458.50;5002642;28;20120;-54
2022/03/30 10:13:51;;;;;;;38.25;14.80;;;;;;;12.24;100.00;96456.75;5005920;28;20715;-53
2022/03/30 10:16:18;;;;;;;49.47;18.83;;;;;;;11.95;100.00;96457.91;5002148;28;20040;-54
2022/03/30 10:18:44;;;;;;;46.83;16.50;;;;;;;12.18;100.00;96457.19;5006811;28;20026;-55
2022/03/30 10:21:17;;;;;;;40.55;15.00;;;;;;;12.21;100.00;96451.75;5005851;28;20529;-53
2022/03/30 10:24:10;;;;;;;45.95;17.92;;;;;;;12.24;100.00;96448.91;5006282;28;20108;-54
2022/03/30 10:26:42;;;;;;;38.58;18.23;;;;;;;11.81;100.00;96449.34;5004591;28;20393;-54
2022/03/30 10:29:12;;;;;;;39.75;16.77;;;;;;;11.88;100.00;96453.19;5004136;28;20033;-53
2022/03/30 10:31:38;;;;;;;43.80;17.40;;;;;;;11.93;100.00;96448.50;5006240;28;20042;-56
2022/03/30 10:34:25;;;;;;;50.30;21.90;;;;;;;11.69;100.00;96448.41;5002402;28;20026;-53
2022/03/30 10:37:00;;;;;;;42.70;17.45;;;;;;;11.83;100.00;96450.06;5014095;28;20041;-53
2022/03/30 10:39:27;;;;;;;38.88;15.85;;;;;;;11.81;100.00;96457.16;5004207;28;20021;-53
2022/03/30 10:41:56;;;;;;;47.97;18.40;;;;;;;11.85;100.00;96442.94;5005302;28;20114;-53
2022/03/30 10:44:35;;;;;;;46.75;20.23;;;;;;;11.82;100.00;96440.53;5000337;28;20029;-54
2022/03/30 10:47:16;;;;;;;56.17;20.60;;;;;;;11.69;100.00;96444.03;5003568;28;21150;-52
2022/03/30 10:49:46;;;;;;;39.55;16.48;;;;;;;12.19;100.00;96437.97;5003433;28;20104;-54
2022/03/30 10:52:23;;;;;;;49.78;19.90;;;;;;;12.28;100.00;96439.91;5006511;28;20034;-53
2022/03/30 10:54:54;;;;;;;50.08;18.48;;;;;;;12.08;100.00;96439.56;5007626;28;20087;-54
2022/03/30 10:58:01;;;;;;;44.35;18.83;;;;;;;12.41;100.00;96432.81;5003475;28;20109;-54
2022/03/30 11:00:38;;;;;;;39.00;19.00;;;;;;;12.20;100.00;96431.78;5001615;28;20022;-53
2022/03/30 11:03:06;;;;;;;38.08;14.93;;;;;;;12.56;100.00;96430.03;5003860;28;20048;-54
2022/03/30 11:05:31;;;;;;;35.25;14.88;;;;;;;12.39;100.00;96424.25;5000836;28;20718;-53
2022/03/30 11:07:57;;;;;;;44.15;17.05;;;;;;;12.38;100.00;96419.16;5004757;28;20031;-59
2022/03/30 11:10:23;;;;;;;39.72;17.58;;;;;;;12.48;100.00;96415.75;5006651;28;20795;-54
2022/03/30 11:12:59;;;;;;;45.50;18.67;;;;;;;12.99;100.00;96418.97;5003733;28;20142;-54
2022/03/30 11:15:25;;;;;;;39.22;15.88;;;;;;;13.14;100.00;96407.34;5001416;28;20295;-53
2022/03/30 11:17:50;;;;;;;38.88;16.55;;;;;;;12.79;100.00;96410.84;5004425;28;20101;-53
2022/03/30 11:20:16;;;;;;;45.70;19.10;;;;;;;13.05;100.00;96405.38;5006810;28;20036;-54
2022/03/30 11:22:44;;;;;;;38.40;17.25;;;;;;;13.59;100.00;96394.25;5007684;28;20924;-53